YBQ weather

Telegraph Harbour Seaplane Base
Thetis Island, British Columbia, Canada

Public forecast

Using degrees Celsius for public forecast. Weather courtesy of forecast.io.

METAR (pilot weather report)

Report is more than 2 hours old.

Closest report is Nanaimo Airport, 9.6 nm (17.7 km) WNW. Retrieved 2019/07/19 04:00 UTC (4 hours ago):

CYCD 190400Z 34005KT 250V360 12SM VCSH SCT030 BKN052 15/11 A3004 RMK SC3SC4 TCU EMBD LAST STFD OBS/NEXT 191300Z SLP174

TAF (pilot weather forecast)

Forecast is more than 12 hours old.

Closest forecast is Nanaimo Airport, 9.6 nm (17.7 km) WNW. Retrieved 2019/07/18 00:00 UTC (1 day ago):

TAF CYCD 182338Z 1900/1904 16006KT P6SM SCT030 BKN080 TEMPO 1900/1904 P6SM -SHRA BKN030 BKN060 BECMG 1901/1903 36006KT RMK NXT FCST WILL BE ISSUED AT 191445Z